Time;durP1;ratioP1;P1;durP2;ratioP2;P2;SDS_P1;SDS_P2;PMS_P1;PMS_P2;Temp;Humidity;BMP_temperature;BMP_pressure;BME280_temperature;BME280_humidity;BME280_pressure;Samples;Min_cycle;Max_cycle;Signal;HPM_P1;HPM_P2
2023/03/17 00:01:56;;;;;;;1.98;0.73;;;;;;;;;;5072316;28;20029;-74
2023/03/17 00:04:26;;;;;;;3.60;1.00;;;;;;;;;;5079323;28;20028;-74
2023/03/17 00:06:53;;;;;;;0.80;0.50;;;;;;;;;;5074762;28;20033;-74
2023/03/17 00:09:19;;;;;;;2.40;0.70;;;;;;;;;;5073968;28;20020;-73
2023/03/17 00:11:46;;;;;;;0.77;0.50;;;;;;;;;;5073984;28;20025;-74
2023/03/17 00:14:13;;;;;;;1.52;0.57;;;;;;;;;;5076554;28;20024;-74
2023/03/17 00:16:48;;;;;;;2.88;0.60;;;;;;;;;;5074249;28;20056;-74
2023/03/17 00:19:20;;;;;;;0.80;0.50;;;;;;;;;;5072662;28;20476;-74
2023/03/17 00:21:46;;;;;;;4.05;0.65;;;;;;;;;;5073758;28;20082;-74
2023/03/17 00:24:12;;;;;;;2.40;0.60;;;;;;;;;;5076285;28;20028;-74
2023/03/17 00:26:40;;;;;;;0.85;0.50;;;;;;;;;;5076178;28;20024;-74
2023/03/17 00:29:07;;;;;;;0.85;0.47;;;;;;;;;;5074245;28;20388;-74
2023/03/17 00:31:33;;;;;;;0.40;0.40;;;;;;;;;;5072159;28;20058;-74
2023/03/17 00:34:00;;;;;;;0.57;0.40;;;;;;;;;;5077818;28;20075;-74
2023/03/17 00:36:30;;;;;;;0.95;0.50;;;;;;;;;;5072875;28;20498;-74
2023/03/17 00:38:57;;;;;;;0.50;0.50;;;;;;;;;;5071312;28;20399;-74
2023/03/17 00:41:24;;;;;;;0.98;0.60;;;;;;;;;;5072061;28;20533;-74
2023/03/17 00:43:50;;;;;;;2.20;0.70;;;;;;;;;;5075247;28;20130;-74
2023/03/17 00:46:23;;;;;;;1.33;0.80;;;;;;;;;;5080914;28;20012;-74
2023/03/17 00:48:49;;;;;;;3.15;0.82;;;;;;;;;;5079964;28;20016;-74
2023/03/17 00:51:16;;;;;;;1.55;0.70;;;;;;;;;;5075669;28;20036;-74
2023/03/17 00:53:43;;;;;;;4.07;0.80;;;;;;;;;;5078918;28;20028;-74
2023/03/17 00:56:13;;;;;;;1.83;0.70;;;;;;;;;;5077401;28;20028;-74
2023/03/17 00:58:39;;;;;;;2.47;0.70;;;;;;;;;;5075087;28;20035;-74
2023/03/17 01:01:07;;;;;;;2.95;0.70;;;;;;;;;;5077706;28;20541;-74
2023/03/17 01:03:33;;;;;;;1.48;0.80;;;;;;;;;;5074848;28;20080;-74
2023/03/17 01:06:01;;;;;;;1.50;0.80;;;;;;;;;;5076434;28;20457;-74
2023/03/17 01:08:29;;;;;;;2.53;0.65;;;;;;;;;;5074932;28;20484;-74
2023/03/17 01:10:55;;;;;;;1.15;0.80;;;;;;;;;;5080372;28;20046;-74
2023/03/17 01:13:22;;;;;;;1.98;0.80;;;;;;;;;;5076483;28;20043;-74
2023/03/17 01:15:49;;;;;;;2.92;0.80;;;;;;;;;;5074441;28;20403;-74
2023/03/17 01:18:16;;;;;;;2.95;0.75;;;;;;;;;;5074514;28;20024;-74
2023/03/17 01:20:43;;;;;;;3.35;1.60;;;;;;;;;;5077458;28;20028;-74
2023/03/17 01:23:10;;;;;;;3.63;0.95;;;;;;;;;;5076094;28;20412;-74
2023/03/17 01:25:37;;;;;;;5.60;1.15;;;;;;;;;;5081304;28;20381;-74
2023/03/17 01:28:04;;;;;;;1.42;0.95;;;;;;;;;;5073803;28;20055;-74
2023/03/17 01:30:31;;;;;;;4.10;0.98;;;;;;;;;;5060768;28;20027;-74
2023/03/17 01:32:58;;;;;;;1.63;1.02;;;;;;;;;;5075668;28;20032;-74
2023/03/17 01:35:25;;;;;;;1.98;1.00;;;;;;;;;;5073616;28;20027;-74
2023/03/17 01:37:52;;;;;;;3.83;1.02;;;;;;;;;;5075815;28;20029;-74
2023/03/17 01:40:23;;;;;;;3.55;1.30;;;;;;;;;;5072804;28;20052;-74
2023/03/17 01:43:01;;;;;;;2.55;1.17;;;;;;;;;;5072860;28;20143;-74
2023/03/17 01:45:47;;;;;;;5.57;1.23;;;;;;;;;;5075373;28;20389;-74
2023/03/17 01:48:14;;;;;;;2.80;0.80;;;;;;;;;;5075348;28;20033;-74
2023/03/17 01:50:41;;;;;;;3.53;1.02;;;;;;;;;;5072843;28;20468;-74
2023/03/17 01:53:08;;;;;;;5.13;1.17;;;;;;;;;;5073693;28;20127;-74
2023/03/17 01:55:34;;;;;;;3.67;1.20;;;;;;;;;;5084306;28;20515;-74
2023/03/17 01:58:00;;;;;;;3.08;1.30;;;;;;;;;;5073886;28;20424;-74
2023/03/17 02:00:27;;;;;;;2.30;1.10;;;;;;;;;;5075377;28;20035;-74
2023/03/17 02:02:55;;;;;;;5.47;1.10;;;;;;;;;;5075341;28;20023;-74
2023/03/17 02:05:22;;;;;;;4.78;1.05;;;;;;;;;;5076311;28;20400;-74
2023/03/17 02:07:49;;;;;;;4.80;1.05;;;;;;;;;;5072964;28;20032;-74
2023/03/17 02:10:18;;;;;;;5.20;1.20;;;;;;;;;;5057723;28;20054;-74
2023/03/17 02:12:45;;;;;;;5.38;1.42;;;;;;;;;;5074289;28;20404;-74
2023/03/17 02:15:12;;;;;;;3.78;1.50;;;;;;;;;;5065036;28;20021;-74
2023/03/17 02:17:38;;;;;;;3.85;1.27;;;;;;;;;;5077198;28;20028;-74
2023/03/17 02:20:17;;;;;;;3.45;1.25;;;;;;;;;;5081573;28;20016;-74
2023/03/17 02:22:48;;;;;;;4.40;1.30;;;;;;;;;;5080175;28;20082;-74
2023/03/17 02:25:16;;;;;;;2.08;1.30;;;;;;;;;;5086536;28;20016;-74
2023/03/17 02:27:45;;;;;;;8.98;2.08;;;;;;;;;;5077958;28;20529;-74
2023/03/17 02:30:12;;;;;;;6.32;1.83;;;;;;;;;;5084893;28;20028;-74
2023/03/17 02:32:40;;;;;;;8.25;1.55;;;;;;;;;;5082656;28;20024;-74
2023/03/17 02:35:07;;;;;;;6.65;2.28;;;;;;;;;;5086333;28;20107;-74
2023/03/17 02:37:36;;;;;;;8.05;1.98;;;;;;;;;;5081765;28;20174;-74
2023/03/17 02:40:04;;;;;;;7.03;2.28;;;;;;;;;;5087205;28;20046;-74
2023/03/17 02:42:30;;;;;;;11.77;1.95;;;;;;;;;;5082216;28;20020;-74
2023/03/17 02:44:58;;;;;;;7.45;2.05;;;;;;;;;;5087040;28;20024;-74
2023/03/17 02:47:24;;;;;;;11.32;2.53;;;;;;;;;;5085524;28;20410;-74
2023/03/17 02:49:50;;;;;;;11.43;2.13;;;;;;;;;;5085387;28;20067;-74
2023/03/17 02:52:16;;;;;;;8.00;2.08;;;;;;;;;;5082886;28;20031;-74
2023/03/17 02:54:43;;;;;;;12.77;3.13;;;;;;;;;;5081479;28;20044;-74
2023/03/17 02:57:09;;;;;;;4.97;1.90;;;;;;;;;;5085761;28;20024;-74
2023/03/17 02:59:36;;;;;;;12.85;2.35;;;;;;;;;;5081621;28;20033;-75
2023/03/17 03:02:02;;;;;;;13.25;3.10;;;;;;;;;;5077998;28;20020;-75
2023/03/17 03:04:29;;;;;;;8.77;2.42;;;;;;;;;;5081811;28;20483;-75
2023/03/17 03:06:56;;;;;;;10.55;2.13;;;;;;;;;;5088127;28;20020;-74
2023/03/17 03:09:23;;;;;;;15.00;2.42;;;;;;;;;;5082652;28;20419;-74
2023/03/17 03:11:49;;;;;;;16.83;2.80;;;;;;;;;;5080915;28;20428;-74
2023/03/17 03:14:15;;;;;;;18.58;2.45;;;;;;;;;;5079437;28;20025;-74
2023/03/17 03:16:42;;;;;;;8.68;2.45;;;;;;;;;;5082249;28;20472;-74
2023/03/17 03:19:08;;;;;;;14.38;2.83;;;;;;;;;;5090415;28;20028;-74
2023/03/17 03:21:35;;;;;;;9.73;3.17;;;;;;;;;;5091882;28;20041;-74
2023/03/17 03:24:01;;;;;;;11.93;3.78;;;;;;;;;;5089181;28;20020;-74
2023/03/17 03:26:27;;;;;;;13.68;3.35;;;;;;;;;;5087080;28;20028;-74
2023/03/17 03:28:56;;;;;;;10.82;2.55;;;;;;;;;;5072490;28;20039;-74
2023/03/17 03:31:22;;;;;;;9.30;2.90;;;;;;;;;;5079199;28;20038;-74
2023/03/17 03:34:14;;;;;;;11.02;2.92;;;;;;;;;;5074178;28;20419;-74
2023/03/17 03:36:44;;;;;;;16.65;3.38;;;;;;;;;;5080594;28;20078;-74
2023/03/17 03:39:10;;;;;;;8.77;2.22;;;;;;;;;;5068141;28;20472;-75
2023/03/17 03:42:06;;;;;;;10.00;2.22;;;;;;;;;;5075284;28;20079;-75
2023/03/17 03:44:59;;;;;;;14.15;3.50;;;;;;;;;;5077018;28;20042;-74
2023/03/17 03:47:56;;;;;;;10.63;2.67;;;;;;;;;;5076462;28;20504;-75
2023/03/17 03:57:07;;;;;;;11.30;2.67;;;;;;;;;;5080958;28;20086;-74
2023/03/17 04:00:04;;;;;;;8.68;2.78;;;;;;;;;;5077552;28;20054;-74
2023/03/17 04:02:55;;;;;;;11.38;3.50;;;;;;;;;;5074532;28;20035;-73
2023/03/17 04:05:22;;;;;;;15.73;3.80;;;;;;;;;;5071899;28;20021;-73
2023/03/17 04:07:48;;;;;;;9.88;3.28;;;;;;;;;;5077240;28;20075;-73
2023/03/17 04:10:20;;;;;;;12.10;3.20;;;;;;;;;;5072897;28;20051;-73
2023/03/17 04:12:46;;;;;;;9.82;3.38;;;;;;;;;;5056143;28;20052;-74
2023/03/17 04:15:18;;;;;;;12.68;3.20;;;;;;;;;;5077534;28;20029;-74
2023/03/17 04:17:45;;;;;;;14.80;3.25;;;;;;;;;;5073546;28;20020;-74
2023/03/17 04:20:16;;;;;;;11.93;3.10;;;;;;;;;;5071509;28;20034;-74
2023/03/17 04:22:43;;;;;;;16.35;3.17;;;;;;;;;;5056841;28;20025;-74
2023/03/17 04:25:13;;;;;;;10.77;3.47;;;;;;;;;;5073745;28;20021;-73
2023/03/17 04:27:41;;;;;;;11.13;2.97;;;;;;;;;;5058270;28;20044;-74
2023/03/17 04:30:15;;;;;;;13.82;2.90;;;;;;;;;;5074658;28;20029;-74
2023/03/17 04:32:42;;;;;;;14.93;3.85;;;;;;;;;;5069794;28;20038;-74
2023/03/17 04:35:33;;;;;;;6.85;2.88;;;;;;;;;;5072450;28;20431;-74
2023/03/17 04:38:05;;;;;;;9.13;2.30;;;;;;;;;;5071223;28;20067;-74
2023/03/17 04:40:32;;;;;;;5.85;2.20;;;;;;;;;;5072080;28;20426;-74
2023/03/17 04:54:37;;;;;;;10.23;2.80;;;;;;;;;;5075572;28;20042;-74
2023/03/17 04:57:03;;;;;;;8.13;2.88;;;;;;;;;;5071505;28;20043;-74
2023/03/17 04:59:29;;;;;;;7.38;1.80;;;;;;;;;;5074074;28;20058;-74
2023/03/17 05:01:55;;;;;;;3.67;2.22;;;;;;;;;;5078156;28;20024;-74
2023/03/17 05:04:22;;;;;;;12.27;2.70;;;;;;;;;;5079793;28;20073;-73
2023/03/17 05:06:48;;;;;;;6.38;2.17;;;;;;;;;;5079627;28;20021;-73
2023/03/17 05:09:14;;;;;;;9.20;2.10;;;;;;;;;;5087040;28;20024;-73
2023/03/17 05:11:41;;;;;;;11.20;2.13;;;;;;;;;;5074449;28;20399;-74
2023/03/17 05:14:07;;;;;;;10.30;2.33;;;;;;;;;;5085129;28;20021;-74
2023/03/17 05:16:33;;;;;;;9.30;1.67;;;;;;;;;;5073701;28;20025;-74
2023/03/17 05:18:59;;;;;;;11.55;1.65;;;;;;;;;;5073019;28;20020;-74
2023/03/17 05:21:25;;;;;;;4.70;1.67;;;;;;;;;;5073412;28;20025;-74
2023/03/17 05:23:52;;;;;;;6.22;2.47;;;;;;;;;;5072728;28;20032;-73
2023/03/17 05:26:18;;;;;;;6.38;1.73;;;;;;;;;;5083100;28;20020;-73
2023/03/17 05:28:44;;;;;;;9.20;1.98;;;;;;;;;;5084294;28;20498;-73
2023/03/17 05:31:10;;;;;;;4.55;1.75;;;;;;;;;;5084600;28;20476;-73
2023/03/17 05:33:36;;;;;;;5.88;1.60;;;;;;;;;;5075092;28;20054;-73
2023/03/17 05:36:02;;;;;;;3.45;1.73;;;;;;;;;;5077708;28;20066;-73
2023/03/17 05:38:29;;;;;;;8.65;1.90;;;;;;;;;;5074564;28;20499;-73
2023/03/17 05:40:55;;;;;;;6.22;1.65;;;;;;;;;;5086224;28;20055;-73
2023/03/17 05:43:21;;;;;;;9.35;2.08;;;;;;;;;;5089665;28;20036;-74
2023/03/17 05:45:49;;;;;;;7.78;2.03;;;;;;;;;;5081735;28;20028;-74
2023/03/17 05:48:15;;;;;;;10.35;2.25;;;;;;;;;;5077323;28;20024;-74
2023/03/17 05:50:42;;;;;;;6.85;2.00;;;;;;;;;;5077558;28;20066;-74
2023/03/17 05:53:09;;;;;;;9.18;2.45;;;;;;;;;;5076401;28;20052;-74
2023/03/17 05:55:35;;;;;;;6.53;1.90;;;;;;;;;;5076768;28;20028;-74
2023/03/17 05:58:03;;;;;;;9.00;2.10;;;;;;;;;;5088280;28;20054;-74
2023/03/17 06:00:30;;;;;;;8.80;2.20;;;;;;;;;;5082658;28;20021;-74
2023/03/17 06:02:56;;;;;;;12.10;2.08;;;;;;;;;;5080234;28;20025;-74
2023/03/17 06:05:22;;;;;;;9.77;2.03;;;;;;;;;;5073076;28;20077;-74
2023/03/17 06:07:48;;;;;;;8.75;2.15;;;;;;;;;;5076851;28;20029;-74
2023/03/17 06:10:15;;;;;;;9.95;3.03;;;;;;;;;;5077832;28;20443;-74
2023/03/17 06:12:41;;;;;;;10.50;2.03;;;;;;;;;;5079937;28;20044;-74
2023/03/17 06:15:08;;;;;;;3.63;1.90;;;;;;;;;;5079015;28;20024;-73
2023/03/17 06:17:35;;;;;;;6.50;1.88;;;;;;;;;;5080995;28;20028;-73
2023/03/17 06:20:02;;;;;;;6.95;1.83;;;;;;;;;;5077496;28;20372;-73
2023/03/17 06:22:29;;;;;;;8.45;2.40;;;;;;;;;;5082129;28;20024;-73
2023/03/17 06:24:55;;;;;;;7.53;2.22;;;;;;;;;;5082048;28;20108;-73
2023/03/17 06:27:21;;;;;;;6.40;1.90;;;;;;;;;;5081283;28;20024;-73
2023/03/17 06:29:47;;;;;;;8.75;2.05;;;;;;;;;;5079463;28;20025;-73
2023/03/17 06:32:13;;;;;;;7.90;1.88;;;;;;;;;;5081234;28;20051;-74
2023/03/17 06:34:41;;;;;;;7.95;2.00;;;;;;;;;;5079409;28;20027;-73
2023/03/17 06:37:09;;;;;;;7.63;2.75;;;;;;;;;;5077879;28;20032;-74
2023/03/17 06:39:36;;;;;;;7.25;2.13;;;;;;;;;;5083685;28;20099;-73
2023/03/17 06:42:02;;;;;;;6.63;2.15;;;;;;;;;;5080625;28;20035;-73
2023/03/17 06:44:29;;;;;;;4.60;2.08;;;;;;;;;;5081074;28;20024;-74
2023/03/17 06:46:55;;;;;;;5.97;2.05;;;;;;;;;;5082552;28;20020;-73
2023/03/17 06:49:21;;;;;;;5.97;2.10;;;;;;;;;;5075499;28;20020;-73
2023/03/17 06:51:48;;;;;;;5.18;2.08;;;;;;;;;;5087824;28;20391;-73
2023/03/17 06:54:14;;;;;;;10.90;2.40;;;;;;;;;;5078837;28;20032;-73
2023/03/17 06:56:40;;;;;;;5.93;2.22;;;;;;;;;;5073809;28;20017;-67
2023/03/17 06:59:06;;;;;;;6.50;1.90;;;;;;;;;;5075824;28;20127;-73
2023/03/17 07:01:32;;;;;;;6.00;2.10;;;;;;;;;;5076360;28;20028;-73
2023/03/17 07:03:59;;;;;;;5.90;2.38;;;;;;;;;;5079827;28;20117;-72
2023/03/17 07:06:27;;;;;;;7.22;2.40;;;;;;;;;;5073590;28;20463;-73
2023/03/17 07:08:53;;;;;;;7.88;2.53;;;;;;;;;;5083270;28;20439;-73
2023/03/17 07:11:19;;;;;;;7.70;2.30;;;;;;;;;;5085247;28;20498;-73
2023/03/17 07:13:45;;;;;;;11.73;2.97;;;;;;;;;;5086890;28;20059;-73
2023/03/17 07:16:14;;;;;;;5.93;2.20;;;;;;;;;;5087928;28;20038;-73
2023/03/17 07:18:40;;;;;;;8.80;2.60;;;;;;;;;;5092087;28;20056;-73
2023/03/17 07:21:06;;;;;;;12.57;3.20;;;;;;;;;;5089583;28;20036;-73
2023/03/17 07:23:32;;;;;;;58.75;17.58;;;;;;;;;;5085638;28;20024;-73
2023/03/17 07:25:59;;;;;;;44.60;14.35;;;;;;;;;;5075670;28;20115;-74
2023/03/17 07:28:25;;;;;;;38.80;12.93;;;;;;;;;;5079737;28;20772;-73
2023/03/17 07:30:51;;;;;;;26.35;8.10;;;;;;;;;;5084605;28;20024;-74
2023/03/17 07:33:21;;;;;;;10.07;4.88;;;;;;;;;;5083203;28;20043;-74
2023/03/17 07:35:47;;;;;;;16.40;3.90;;;;;;;;;;5072188;28;20376;-71
2023/03/17 07:38:14;;;;;;;10.40;3.30;;;;;;;;;;5074053;28;20036;-71
2023/03/17 07:40:41;;;;;;;8.60;2.90;;;;;;;;;;5074647;28;20132;-71
2023/03/17 07:43:07;;;;;;;12.30;3.45;;;;;;;;;;5084795;28;20065;-71
2023/03/17 07:45:34;;;;;;;14.80;3.10;;;;;;;;;;5079942;28;20107;-72
2023/03/17 07:48:01;;;;;;;7.72;2.40;;;;;;;;;;5079723;28;20071;-72
2023/03/17 07:50:27;;;;;;;10.02;3.70;;;;;;;;;;5077684;28;20028;-71
2023/03/17 07:52:55;;;;;;;13.80;3.28;;;;;;;;;;5074985;28;20028;-72
2023/03/17 07:55:21;;;;;;;11.70;2.95;;;;;;;;;;5082824;28;20035;-71
2023/03/17 07:57:47;;;;;;;17.48;3.22;;;;;;;;;;5078791;28;20044;-71
2023/03/17 08:00:13;;;;;;;13.80;3.00;;;;;;;;;;5074156;28;20044;-70
2023/03/17 08:02:40;;;;;;;10.07;2.28;;;;;;;;;;5079060;28;20038;-70
2023/03/17 08:05:06;;;;;;;10.07;2.88;;;;;;;;;;5072987;28;20047;-70
2023/03/17 08:07:33;;;;;;;14.52;3.00;;;;;;;;;;5078828;28;20028;-70
2023/03/17 08:09:59;;;;;;;16.70;3.35;;;;;;;;;;5077559;28;20021;-70
2023/03/17 08:12:25;;;;;;;14.18;3.40;;;;;;;;;;5083666;28;20039;-70
2023/03/17 08:14:51;;;;;;;13.95;3.53;;;;;;;;;;5076494;28;20019;-67
2023/03/17 08:17:18;;;;;;;17.50;3.28;;;;;;;;;;5076731;28;20035;-69
2023/03/17 08:19:44;;;;;;;13.10;2.50;;;;;;;;;;5078017;28;20032;-69
2023/03/17 08:22:11;;;;;;;8.30;2.53;;;;;;;;;;5079531;28;20036;-68
2023/03/17 08:24:39;;;;;;;15.27;2.78;;;;;;;;;;5079618;28;20431;-69
2023/03/17 08:27:07;;;;;;;11.63;3.40;;;;;;;;;;5079695;28;20108;-68
2023/03/17 08:29:33;;;;;;;7.25;2.25;;;;;;;;;;5081134;28;20039;-68
2023/03/17 08:32:00;;;;;;;9.60;2.15;;;;;;;;;;5081461;28;20012;-69
2023/03/17 08:34:26;;;;;;;13.13;2.80;;;;;;;;;;5082021;28;20024;-68
2023/03/17 08:36:52;;;;;;;8.77;2.85;;;;;;;;;;5079339;28;20021;-69
2023/03/17 08:39:19;;;;;;;10.52;2.33;;;;;;;;;;5075945;28;20081;-69
2023/03/17 08:41:45;;;;;;;10.57;2.30;;;;;;;;;;5078219;28;20060;-68
2023/03/17 08:44:13;;;;;;;19.92;2.95;;;;;;;;;;5077400;28;20032;-69
2023/03/17 08:46:39;;;;;;;9.90;2.22;;;;;;;;;;5077212;28;20509;-68
2023/03/17 08:49:06;;;;;;;9.25;2.50;;;;;;;;;;5077059;28;20025;-68
2023/03/17 08:51:33;;;;;;;16.85;2.75;;;;;;;;;;5077056;28;20351;-68
2023/03/17 08:54:00;;;;;;;15.15;2.88;;;;;;;;;;5080311;28;20025;-68
2023/03/17 08:56:26;;;;;;;15.80;2.55;;;;;;;;;;5078357;28;20070;-68
2023/03/17 08:58:53;;;;;;;11.63;2.55;;;;;;;;;;5083083;28;20063;-68
2023/03/17 09:01:20;;;;;;;15.35;2.90;;;;;;;;;;5079888;28;20400;-68
2023/03/17 09:03:46;;;;;;;9.20;2.38;;;;;;;;;;5080223;28;20031;-68
2023/03/17 09:06:13;;;;;;;15.43;2.47;;;;;;;;;;5080017;28;20387;-68
2023/03/17 09:08:43;;;;;;;13.98;3.28;;;;;;;;;;5078977;28;20060;-68
2023/03/17 09:11:17;;;;;;;9.00;2.92;;;;;;;;;;5079253;28;20624;-68
2023/03/17 09:13:45;;;;;;;13.88;3.03;;;;;;;;;;5078678;28;20029;-68
2023/03/17 09:16:11;;;;;;;10.27;2.78;;;;;;;;;;5079197;28;20020;-68
2023/03/17 09:18:38;;;;;;;11.25;2.47;;;;;;;;;;5081085;28;20033;-68
2023/03/17 09:21:04;;;;;;;16.05;3.05;;;;;;;;;;5076522;28;20333;-68
2023/03/17 09:23:31;;;;;;;10.75;2.38;;;;;;;;;;5079810;28;20059;-68
2023/03/17 09:25:57;;;;;;;10.38;2.00;;;;;;;;;;5090547;28;20020;-68
2023/03/17 09:28:23;;;;;;;15.40;3.08;;;;;;;;;;5084929;28;20107;-68
2023/03/17 09:30:50;;;;;;;12.60;3.33;;;;;;;;;;5083087;28;20025;-68
2023/03/17 09:33:16;;;;;;;18.75;3.13;;;;;;;;;;5084442;28;20038;-69
2023/03/17 09:35:43;;;;;;;13.25;2.92;;;;;;;;;;5084260;28;20025;-69
2023/03/17 09:38:10;;;;;;;11.70;2.10;;;;;;;;;;5083045;28;20465;-69
2023/03/17 09:40:39;;;;;;;6.60;2.33;;;;;;;;;;5081138;28;20131;-69
2023/03/17 09:43:08;;;;;;;8.63;2.40;;;;;;;;;;5082289;28;20028;-69
2023/03/17 09:45:39;;;;;;;9.60;2.08;;;;;;;;;;5088817;28;20024;-69
2023/03/17 09:48:14;;;;;;;7.30;2.38;;;;;;;;;;5082059;28;20440;-69
2023/03/17 09:50:44;;;;;;;9.77;2.33;;;;;;;;;;5078610;28;20528;-68
2023/03/17 09:53:19;;;;;;;12.35;2.08;;;;;;;;;;5084796;28;20024;-69
2023/03/17 09:55:47;;;;;;;6.95;2.50;;;;;;;;;;5077888;28;20083;-68
2023/03/17 09:58:14;;;;;;;18.10;4.22;;;;;;;;;;5082240;28;20047;-69
2023/03/17 10:00:40;;;;;;;14.13;2.53;;;;;;;;;;5079421;28;20025;-68
2023/03/17 10:03:10;;;;;;;18.63;2.72;;;;;;;;;;5084154;28;20035;-68
2023/03/17 10:05:37;;;;;;;11.20;2.22;;;;;;;;;;5087082;28;20115;-68
2023/03/17 10:08:19;;;;;;;9.40;1.95;;;;;;;;;;5083878;28;20020;-68
2023/03/17 10:10:47;;;;;;;18.70;2.85;;;;;;;;;;5080081;28;20067;-68
2023/03/17 10:13:20;;;;;;;12.63;2.35;;;;;;;;;;5082036;28;20500;-69
2023/03/17 10:15:53;;;;;;;13.00;2.20;;;;;;;;;;5081226;28;20154;-69
2023/03/17 10:18:23;;;;;;;7.97;2.47;;;;;;;;;;5076751;28;20032;-69
2023/03/17 10:20:54;;;;;;;7.07;2.20;;;;;;;;;;5084086;28;20103;-69
2023/03/17 10:23:23;;;;;;;12.88;2.33;;;;;;;;;;5080830;28;20032;-69
2023/03/17 10:25:49;;;;;;;10.23;1.90;;;;;;;;;;5080820;28;20021;-69
2023/03/17 10:28:21;;;;;;;14.48;3.40;;;;;;;;;;5085921;28;20028;-69
2023/03/17 10:30:48;;;;;;;11.50;2.30;;;;;;;;;;5085706;28;20024;-69
2023/03/17 10:33:14;;;;;;;15.02;2.88;;;;;;;;;;5088659;28;20028;-70
2023/03/17 10:35:43;;;;;;;9.90;3.25;;;;;;;;;;5088746;28;20020;-70
2023/03/17 10:38:16;;;;;;;7.38;1.88;;;;;;;;;;5089636;28;20032;-69
2023/03/17 10:40:46;;;;;;;13.02;2.80;;;;;;;;;;5076394;28;20048;-69
2023/03/17 10:43:21;;;;;;;6.40;1.83;;;;;;;;;;5079946;28;20056;-69
2023/03/17 10:46:04;;;;;;;12.38;2.20;;;;;;;;;;5088930;28;20023;-69
2023/03/17 10:48:34;;;;;;;12.60;2.22;;;;;;;;;;5081789;28;20234;-69
2023/03/17 10:51:05;;;;;;;9.80;2.42;;;;;;;;;;5085578;28;20016;-70
2023/03/17 10:53:36;;;;;;;17.73;2.58;;;;;;;;;;5084041;28;20434;-69
2023/03/17 10:56:09;;;;;;;11.50;2.30;;;;;;;;;;5085079;28;20027;-69
2023/03/17 10:58:35;;;;;;;8.80;2.80;;;;;;;;;;5087510;28;20028;-70
2023/03/17 11:01:06;;;;;;;8.90;1.75;;;;;;;;;;5079888;28;20036;-69
2023/03/17 11:03:36;;;;;;;13.40;2.40;;;;;;;;;;5078606;28;20418;-69
2023/03/17 11:06:05;;;;;;;12.50;1.95;;;;;;;;;;5075256;28;20119;-70
2023/03/17 11:08:34;;;;;;;7.32;2.35;;;;;;;;;;5081566;28;20027;-69
2023/03/17 11:11:03;;;;;;;10.55;2.50;;;;;;;;;;5075318;28;20032;-69
2023/03/17 11:13:30;;;;;;;13.82;3.47;;;;;;;;;;5083268;28;20035;-70
2023/03/17 11:16:23;;;;;;;13.82;2.30;;;;;;;;;;5080792;28;20462;-69
2023/03/17 11:18:56;;;;;;;11.25;2.10;;;;;;;;;;5080013;28;20078;-69
2023/03/17 11:21:33;;;;;;;13.93;2.17;;;;;;;;;;5085790;28;20032;-69
2023/03/17 11:24:11;;;;;;;16.52;2.47;;;;;;;;;;5079495;28;20077;-69
2023/03/17 11:26:41;;;;;;;15.15;2.03;;;;;;;;;;5078455;28;20073;-69
2023/03/17 11:29:22;;;;;;;11.32;2.13;;;;;;;;;;5089595;28;20095;-69
2023/03/17 11:32:07;;;;;;;11.80;2.13;;;;;;;;;;5075219;28;20117;-69
2023/03/17 11:34:52;;;;;;;19.48;2.05;;;;;;;;;;5075477;28;20029;-69
2023/03/17 11:37:37;;;;;;;8.70;2.55;;;;;;;;;;5081981;28;20032;-70
2023/03/17 11:40:04;;;;;;;14.63;2.45;;;;;;;;;;5073809;28;20512;-69
2023/03/17 11:43:06;;;;;;;10.25;1.80;;;;;;;;;;5080627;28;20048;-69
2023/03/17 11:45:51;;;;;;;12.93;2.33;;;;;;;;;;5022724;28;20036;-69
2023/03/17 11:48:21;;;;;;;14.95;2.25;;;;;;;;;;5011743;28;20033;-69
2023/03/17 11:50:55;;;;;;;14.80;2.70;;;;;;;;;;5019185;28;20520;-69
2023/03/17 11:53:35;;;;;;;11.85;3.42;;;;;;;;;;5023672;28;20055;-69
2023/03/17 11:56:15;;;;;;;5.25;1.83;;;;;;;;;;5006155;28;20418;-69
2023/03/17 11:58:43;;;;;;;14.90;1.85;;;;;;;;;;5015831;28;20536;-69
2023/03/17 12:01:14;;;;;;;9.75;1.88;;;;;;;;;;5004340;28;20159;-69
2023/03/17 12:03:47;;;;;;;9.38;2.00;;;;;;;;;;5017778;28;20029;-68
2023/03/17 12:06:18;;;;;;;8.48;1.80;;;;;;;;;;5021414;28;20037;-68
2023/03/17 12:08:46;;;;;;;10.60;1.55;;;;;;;;;;5019485;28;20517;-68
2023/03/17 12:11:15;;;;;;;19.42;3.17;;;;;;;;;;5018756;28;20426;-69
2023/03/17 12:13:46;;;;;;;10.20;1.75;;;;;;;;;;5021790;28;20033;-68
2023/03/17 12:16:14;;;;;;;12.40;2.10;;;;;;;;;;5024150;28;20064;-69
2023/03/17 12:18:59;;;;;;;9.55;2.83;;;;;;;;;;5011059;28;20071;-69
2023/03/17 12:21:35;;;;;;;6.60;1.60;;;;;;;;;;5076249;28;20426;-69
2023/03/17 12:24:03;;;;;;;9.23;1.83;;;;;;;;;;5076780;28;20059;-69
2023/03/17 12:26:36;;;;;;;10.48;2.25;;;;;;;;;;5079369;28;20056;-69
2023/03/17 12:29:14;;;;;;;10.68;1.60;;;;;;;;;;5083915;28;20020;-69
2023/03/17 12:31:45;;;;;;;7.68;2.00;;;;;;;;;;5082920;28;20103;-69
2023/03/17 12:34:19;;;;;;;9.15;3.95;;;;;;;;;;5078545;28;20028;-71
2023/03/17 12:36:47;;;;;;;9.75;2.15;;;;;;;;;;5080462;28;20032;-71
2023/03/17 12:39:13;;;;;;;12.73;2.10;;;;;;;;;;5091518;28;20032;-71
2023/03/17 12:42:04;;;;;;;7.07;1.38;;;;;;;;;;5080798;28;20134;-71
2023/03/17 12:44:49;;;;;;;11.15;2.13;;;;;;;;;;5082006;28;20483;-71
2023/03/17 12:47:16;;;;;;;9.70;1.85;;;;;;;;;;5080463;28;20465;-71
2023/03/17 12:50:03;;;;;;;8.95;1.70;;;;;;;;;;5075457;28;20021;-71
2023/03/17 12:52:40;;;;;;;10.90;1.77;;;;;;;;;;5082508;28;20488;-71
2023/03/17 12:55:11;;;;;;;13.32;2.42;;;;;;;;;;5089805;28;20110;-71
2023/03/17 12:57:41;;;;;;;10.88;2.00;;;;;;;;;;5088486;28;20387;-71
2023/03/17 13:00:19;;;;;;;9.98;2.10;;;;;;;;;;5077773;28;20476;-71
2023/03/17 13:02:49;;;;;;;14.88;2.17;;;;;;;;;;5090478;28;20036;-71
2023/03/17 13:05:18;;;;;;;17.85;2.67;;;;;;;;;;5074497;28;20020;-71
2023/03/17 13:07:50;;;;;;;8.85;1.83;;;;;;;;;;5078802;28;20392;-72
2023/03/17 13:10:18;;;;;;;6.65;2.03;;;;;;;;;;5080633;28;20492;-70
2023/03/17 13:12:47;;;;;;;4.07;1.35;;;;;;;;;;5092431;28;20016;-71
2023/03/17 13:15:32;;;;;;;14.77;2.33;;;;;;;;;;5077854;28;20035;-71
2023/03/17 13:18:17;;;;;;;12.77;2.20;;;;;;;;;;5092932;28;20099;-71
2023/03/17 13:20:45;;;;;;;10.60;2.00;;;;;;;;;;5088346;28;20024;-71
2023/03/17 13:23:11;;;;;;;13.38;2.40;;;;;;;;;;5084616;28;20415;-71
2023/03/17 13:25:38;;;;;;;14.57;2.70;;;;;;;;;;5080003;28;20433;-71
2023/03/17 13:28:14;;;;;;;13.57;2.47;;;;;;;;;;5079804;28;20044;-71
2023/03/17 13:30:40;;;;;;;10.40;1.75;;;;;;;;;;5090848;28;20028;-71
2023/03/17 13:33:09;;;;;;;12.27;2.35;;;;;;;;;;5093124;28;20035;-71
2023/03/17 13:35:44;;;;;;;9.07;1.65;;;;;;;;;;5093225;28;20028;-71
2023/03/17 13:38:25;;;;;;;8.15;1.70;;;;;;;;;;5092838;28;20056;-71
2023/03/17 13:40:54;;;;;;;8.70;2.33;;;;;;;;;;5083806;28;20507;-71
2023/03/17 13:43:38;;;;;;;9.02;1.70;;;;;;;;;;5093949;28;20053;-71
2023/03/17 13:46:35;;;;;;;8.98;2.03;;;;;;;;;;5083603;28;20020;-71
2023/03/17 13:49:03;;;;;;;9.82;2.30;;;;;;;;;;5070332;28;20043;-71
2023/03/17 13:51:33;;;;;;;9.43;2.38;;;;;;;;;;5093994;28;20040;-71
2023/03/17 13:54:08;;;;;;;14.20;2.97;;;;;;;;;;5093603;28;20029;-71
2023/03/17 13:56:37;;;;;;;7.95;2.08;;;;;;;;;;5091990;28;20050;-71
2023/03/17 13:59:04;;;;;;;10.35;2.05;;;;;;;;;;5091006;28;20027;-71
2023/03/17 14:01:39;;;;;;;13.05;2.03;;;;;;;;;;5090760;28;20050;-71
2023/03/17 14:04:11;;;;;;;10.82;2.60;;;;;;;;;;5092215;28;20122;-71
2023/03/17 14:06:37;;;;;;;9.32;2.53;;;;;;;;;;5092005;28;20032;-71
2023/03/17 14:09:09;;;;;;;7.70;2.28;;;;;;;;;;5093488;28;20021;-71
2023/03/17 14:11:36;;;;;;;7.85;1.77;;;;;;;;;;5093754;28;20020;-71
2023/03/17 14:14:02;;;;;;;9.10;2.15;;;;;;;;;;5093918;28;20032;-71
2023/03/17 14:16:33;;;;;;;10.63;2.00;;;;;;;;;;5090777;28;20506;-71
2023/03/17 14:19:12;;;;;;;13.25;1.90;;;;;;;;;;5092790;28;20085;-71
2023/03/17 14:21:38;;;;;;;9.63;2.13;;;;;;;;;;5093842;28;20618;-71
2023/03/17 14:24:17;;;;;;;18.58;2.20;;;;;;;;;;5093419;28;20024;-71
2023/03/17 14:26:43;;;;;;;9.07;2.25;;;;;;;;;;5086310;28;20099;-71
2023/03/17 14:29:13;;;;;;;13.50;2.15;;;;;;;;;;5093359;28;20017;-71
2023/03/17 14:31:39;;;;;;;13.95;2.28;;;;;;;;;;5093100;28;20035;-71
2023/03/17 14:34:12;;;;;;;9.13;1.98;;;;;;;;;;5080065;28;20407;-71
2023/03/17 14:36:38;;;;;;;5.10;1.45;;;;;;;;;;5087669;28;20103;-71
2023/03/17 14:39:04;;;;;;;9.13;2.05;;;;;;;;;;5093460;28;20510;-71
2023/03/17 14:41:33;;;;;;;8.35;1.70;;;;;;;;;;5088938;28;20093;-71
2023/03/17 14:44:00;;;;;;;14.15;2.58;;;;;;;;;;5093386;28;20028;-71
2023/03/17 14:46:30;;;;;;;16.17;3.08;;;;;;;;;;5083605;28;20029;-71
2023/03/17 14:49:02;;;;;;;12.25;2.28;;;;;;;;;;5075335;28;20496;-71
2023/03/17 14:51:29;;;;;;;15.38;2.95;;;;;;;;;;5091779;28;20090;-71
2023/03/17 14:54:03;;;;;;;14.77;2.78;;;;;;;;;;5088035;28;20028;-71
2023/03/17 14:56:32;;;;;;;13.50;2.80;;;;;;;;;;5080495;28;20449;-71
2023/03/17 14:59:04;;;;;;;13.45;3.25;;;;;;;;;;5090073;28;20527;-71
2023/03/17 15:01:35;;;;;;;12.93;2.47;;;;;;;;;;5091013;28;20115;-71
2023/03/17 15:04:10;;;;;;;11.80;1.92;;;;;;;;;;5093218;28;20032;-71
2023/03/17 15:06:46;;;;;;;8.13;1.95;;;;;;;;;;5080514;28;20024;-71
2023/03/17 15:09:31;;;;;;;13.10;2.30;;;;;;;;;;5092562;28;20118;-71